Sunday, September 21, 2014
06:11 UTC
  |  Log In   |  Register Free
Airport Search:

Mccarley Fld Airport
(U02)

Mccarley Fld Airport Diagram
No Airport Diagram Available

FAA data valid effective September 18, 2014 - November 13, 2014 (unless otherwise noted).

 
 
 
 
 
 
 
 
 
 
 
 
 
 

Current Aviation Weather for Mccarley Fld Airport (U02)

METAR data is unavailable for U02. The nearest METAR location is at KPIH (21 nm SW from U02).

The most recent METAR observation for KPIH was updated at: 0514
METAR Summary (Translated METAR)
KPIH
210453Z AUTO 05003KT 10SM CLR 16/08 A3013 RMK AO2 SLP168 T01560083
(21 nm SW from U02)
KIDA
210553Z AUTO 35005KT 10SM CLR 12/07 A3018 RMK AO2 SLP186 T01220072 10272 20117 53004
(22 nm NE from U02)
TAF Summary (Translated TAF)
KPIH
201720Z 2018/2118 VRB06KT P6SM SKC
KIDA
(42.9 nm NE from KPIH)
201720Z 2018/2118 VRB06KT P6SM SKC
  Airport Weather Conditions for U02

Current weather conditions are
not available for U02


The nearest NOAA weather station
is at PIH, (21 nm SW from U02)
  
 Current Weather at PIH
64° F
Fair
East winds at 5.8 mph
PIH NOAA Radar

Pressure: 30.13 in
Humidity: 52%
Wind: East at 5.8 MPH (5 KT)
Dew Point: 46.0°F
Visibility: 10.00 mi


Airport Weather Forecast for U02

Translated METAR and TAF for KPIH
Translated METAR for KPIH (0605 UTC 21 September 2014)
found at http://aviationweather.gov/adds/metars/
 
METAR text: KPIH 210553Z AUTO 35003KT 10SM CLR 12/08 A3014 RMK AO2 SLP172 T01170083 10283 20117 53002
Conditions at: KPIH (POCATELLO , ID, US) observed 0553 UTC 21 September 2014
Temperature: 11.7°C (53°F)
Dewpoint: 8.3°C (47°F) [RH = 80%]
Pressure (altimeter): 30.14 inches Hg (1020.7 mb)
[Sea-level pressure: 1017.2 mb]
Winds: from the N (350 degrees) at 3 MPH (3 knots; 1.6 m/s)
Visibility: 10 or more miles (16+ km)
Ceiling: at least 12,000 feet AGL
Clouds: sky clear below 12,000 feet AGL
Weather: automated observation with no human augmentation;
there may or may not be significant weather present at this time
Translated TAF for KPIH
Forecast for: KPIH (POCATELLO , ID, US)
TAF Text: KPIH 210520Z 2106/2206 VRB06KT P6SM FEW250
Forecast period: 0600 to 2000 UTC 21 September 2014
Forecast type: FROM: standard forecast or significant change
Winds: variable direction winds at 7 MPH (6 knots; 3.1 m/s)
Visibility: 6 or more miles (10+ km)
Clouds: few clouds at 25000 feet AGL
Weather: no significant weather forecast for this period
TAF Text: FM212000 20012KT P6SM -SHRA VCTS SCT090 BKN120CB
Forecast period: 2000 UTC 21 September 2014 to 0200 UTC 22 September 2014
Forecast type: FROM: standard forecast or significant change
Winds: from the SSW (200 degrees) at 14 MPH (12 knots; 6.2 m/s)
Visibility: 6 or more miles (10+ km)
Ceiling: 12000 feet AGL
Clouds: scattered clouds at 9000 feet AGL
broken clouds at 12000 feet AGL
Weather: -SHRA VCTS  (light rain showers, thunderstorm in vicinity)
TAF Text: FM220200 18010KT P6SM -SHRA VCTS SCT030 BKN070CB
Forecast period: 0200 to 0600 UTC 22 September 2014
Forecast type: FROM: standard forecast or significant change
Winds: from the S (180 degrees) at 12 MPH (10 knots; 5.2 m/s)
Visibility: 6 or more miles (10+ km)
Ceiling: 7000 feet AGL
Clouds: scattered clouds at 3000 feet AGL
broken clouds at 7000 feet AGL
Weather: -SHRA VCTS  (light rain showers, thunderstorm in vicinity)

Find All Airport Services Find A Hotel Find A Rental Car Find A Golf Course Find A Restaurant $100 Hamburger



FBO's on the Field
FBO Company Facility Photos Services Transportation Aviation Fuel Prices: Prices include tax
Catering Weather Repair Courtesy Rental Type 100LL JetA JetA+ MOGAS 8087
 
City of Blackfoot

This FBO has not yet been rated
FS:Independent
Last Updated: Sep-03
Login to update fuel prices
SS:
Contact City of BlackfootMore FBO Information
 
Add another FBO Facility Photos Catering Weather Repair Courtesy Rental Type 100LL JetA JetA+ MOGAS 8087
Services Transportation Aviation Fuel Prices: Prices include tax


model-print
model-print
model-print
model-print